Air Quality Table

TIMESTAMP NO2 SO2 PM10 PM2.5 CO TEMP HUM AIRPRES WS WD NO
2022-01-21 01:00 62.05 µg/m3 0.65 µg/m3 22.68 µg/m3 12.14 µg/m3 0.35 mg/m3 12.13 °C 74.49 % 1,021.53 mbar 2.06 m/s 200.17 Deg 15.03 µg/m3
2022-01-20 17:00 39.25 µg/m3 0.88 µg/m3 13.42 µg/m3 5.71 µg/m3 0.27 mg/m3 13.92 °C 68.2 % 1,023.18 mbar 2.5 m/s 237.06 Deg 36.01 µg/m3
2022-01-20 09:00 66.57 µg/m3 1.09 µg/m3 17.64 µg/m3 9.19 µg/m3 0.43 mg/m3 10.93 °C 89.75 % 1,025.15 mbar 1.67 m/s 199.11 Deg 57.97 µg/m3
2022-01-20 01:00 57.86 µg/m3 0.57 µg/m3 13.88 µg/m3 7.15 µg/m3 0.36 mg/m3 12.42 °C 85.12 % 1,027.26 mbar 0.95 m/s 204.83 Deg 17.58 µg/m3
2022-01-19 17:00 37.81 µg/m3 1.06 µg/m3 14.83 µg/m3 6.09 µg/m3 0.34 mg/m3 15.14 °C 60.51 % 1,028.26 mbar 0.84 m/s 217.76 Deg 21.63 µg/m3
2022-01-19 09:00 71.19 µg/m3 1.43 µg/m3 20.07 µg/m3 10.74 µg/m3 0.47 mg/m3 11.58 °C 79.16 % 1,028.30 mbar 1.39 m/s 209.86 Deg 65.05 µg/m3
2022-01-19 01:00 60.9 µg/m3 0.64 µg/m3 22.17 µg/m3 12.38 µg/m3 0.5 mg/m3 11.65 °C 75.84 % 1,028.62 mbar 1.78 m/s 229.63 Deg 23.24 µg/m3
2022-01-18 17:00 9.66 µg/m3 0.22 µg/m3 11.26 µg/m3 4.57 µg/m3 0.27 mg/m3 14.35 °C 62.47 % 1,027.16 mbar 1.79 m/s 315.08 Deg 3.6 µg/m3
2022-01-18 09:00 13.16 µg/m3 0.15 µg/m3 10.76 µg/m3 4.47 µg/m3 0.25 mg/m3 12.73 °C 73.6 % 1,024.88 mbar 1.92 m/s 271.69 Deg 1.57 µg/m3
2022-01-18 01:00 8.31 µg/m3 0.17 µg/m3 10.39 µg/m3 4.37 µg/m3 0.26 mg/m3 13.26 °C 74.96 % 1,023.91 mbar 2.85 m/s 257.19 Deg 0.66 µg/m3
2022-01-17 17:00 14.58 µg/m3 0.27 µg/m3 10.79 µg/m3 4.26 µg/m3 0.26 mg/m3 14.2 °C 69.44 % 1,023.88 mbar 4.29 m/s 265.39 Deg 3.2 µg/m3
2022-01-17 09:00 62.96 µg/m3 0.75 µg/m3 14.94 µg/m3 7.75 µg/m3 0.48 mg/m3 11.43 °C 87.23 % 1,024.45 mbar 2 m/s 197.44 Deg 27.93 µg/m3
2022-01-17 01:00 61.49 µg/m3 0.81 µg/m3 21.06 µg/m3 12.3 µg/m3 0.57 mg/m3 11.81 °C 88.24 % 1,024.44 mbar 1.77 m/s 203 Deg 32.45 µg/m3
2022-01-16 17:00 29.57 µg/m3 1.05 µg/m3 14.76 µg/m3 7.1 µg/m3 0.4 mg/m3 14.31 °C 74.96 % 1,023.15 mbar 0.66 m/s 138.5 Deg 16.15 µg/m3
2022-01-16 09:00 50.62 µg/m3 0.82 µg/m3 15.34 µg/m3 8.17 µg/m3 0.4 mg/m3 8.36 °C 90.77 % 1,021.37 mbar 2.34 m/s 200.79 Deg 45.35 µg/m3
2022-01-16 01:00 64.76 µg/m3 0.76 µg/m3 22.67 µg/m3 13.24 µg/m3 0.63 mg/m3 10.6 °C 80.88 % 1,020.16 mbar 1.82 m/s 211.1 Deg 32.31 µg/m3
2022-01-15 17:00 16.04 µg/m3 0.51 µg/m3 11.38 µg/m3 4.59 µg/m3 0.32 mg/m3 13.27 °C 64.84 % 1,019.99 mbar 1.82 m/s 309.33 Deg 6.5 µg/m3
2022-01-15 09:00 76.63 µg/m3 1.35 µg/m3 18.15 µg/m3 9.29 µg/m3 0.39 mg/m3 7.9 °C 81.89 % 1,021.31 mbar 2.54 m/s 201.43 Deg 84.18 µg/m3
2022-01-15 01:00 41.64 µg/m3 0.41 µg/m3 14.89 µg/m3 7.24 µg/m3 0.33 mg/m3 10.91 °C 64.24 % 1,023.85 mbar 1.73 m/s 215.61 Deg 8.3 µg/m3
2022-01-14 17:00 15.33 µg/m3 0.29 µg/m3 13.84 µg/m3 5.6 µg/m3 0.25 mg/m3 12.86 °C 61.59 % 1,024.62 mbar 2.01 m/s 236.76 Deg 4.08 µg/m3
2022-01-14 09:00 8.85 µg/m3 0.24 µg/m3 13.5 µg/m3 6.17 µg/m3 0.22 mg/m3 12.22 °C 63.58 % 1,024.78 mbar 2.42 m/s 237.09 Deg 1.61 µg/m3
2022-01-14 01:00 5.44 µg/m3 0.18 µg/m3 13.6 µg/m3 6.31 µg/m3 0.25 mg/m3 12.56 °C 66.4 % 1,024.60 mbar 1.99 m/s 246.47 Deg 0.87 µg/m3
2022-01-13 17:00 6.79 µg/m3 0.18 µg/m3 13.75 µg/m3 6.33 µg/m3 0.28 mg/m3 12.97 °C 73.72 % 1,022.10 mbar 2.16 m/s 264.21 Deg 1.99 µg/m3
2022-01-13 09:00 21.12 µg/m3 0.2 µg/m3 10.26 µg/m3 4.35 µg/m3 0.3 mg/m3 11.37 °C 86.64 % 1,019.68 mbar 1.55 m/s 270.37 Deg 5.64 µg/m3
2022-01-13 01:00 20.32 µg/m3 0.28 µg/m3 11.49 µg/m3 4.97 µg/m3 0.31 mg/m3 11.43 °C 86.68 % 1,017.86 mbar 1.93 m/s 266.72 Deg 5.49 µg/m3
2022-01-12 17:00 34.67 µg/m3 0.99 µg/m3 18.13 µg/m3 8.14 µg/m3 0.4 mg/m3 13.89 °C 72.14 % 1,014.56 mbar 0.84 m/s 248.06 Deg 35.44 µg/m3
2022-01-12 09:00 68.05 µg/m3 1.6 µg/m3 20.96 µg/m3 11.04 µg/m3 0.51 mg/m3 11.14 °C 81.02 % 1,011.57 mbar 1.72 m/s 218.25 Deg 100.82 µg/m3
2022-01-12 01:00 7.86 µg/m3 0.36 µg/m3 11.69 µg/m3 4.98 µg/m3 0.27 mg/m3 13.9 °C 64.5 % 1,008.73 mbar 2.19 m/s 309.86 Deg 3.09 µg/m3
2022-01-11 17:00 8.28 µg/m3 0.45 µg/m3 10.62 µg/m3 4.05 µg/m3 0.26 mg/m3 13.83 °C 64.31 % 1,004.78 mbar 2.98 m/s 311.23 Deg 3.61 µg/m3
2022-01-11 09:00 9.45 µg/m3 0.5 µg/m3 9.65 µg/m3 3.75 µg/m3 0.22 mg/m3 12.01 °C 64.51 % 1,000.94 mbar 2.9 m/s 302.56 Deg 1.71 µg/m3
2022-01-11 01:00 8.79 µg/m3 0.25 µg/m3 9.09 µg/m3 3.33 µg/m3 0.25 mg/m3 12.09 °C 63.12 % 998.51 mbar 3.63 m/s 299.25 Deg 1.73 µg/m3
2022-01-10 17:00 10.43 µg/m3 0.12 µg/m3 9.13 µg/m3 3.16 µg/m3 0.23 mg/m3 12.1 °C 62.66 % 996.10 mbar 5.94 m/s 275.83 Deg 3.37 µg/m3
2022-01-10 09:00 10.29 µg/m3 0.04 µg/m3 8.43 µg/m3 2.92 µg/m3 0.18 mg/m3 10.46 °C 79.36 % 998.75 mbar 4.38 m/s 250.34 Deg 2.36 µg/m3
2022-01-10 01:00 2.16 µg/m3 0.04 µg/m3 8.74 µg/m3 3.25 µg/m3 0.19 mg/m3 12.96 °C 72.97 % 1,004.09 mbar 6.6 m/s 235.46 Deg 0.7 µg/m3
2022-01-09 17:00 5.06 µg/m3 0.15 µg/m3 9.32 µg/m3 3.41 µg/m3 0.23 mg/m3 14.08 °C 67.08 % 1,007.23 mbar 5.35 m/s 268.16 Deg 4.43 µg/m3
2022-01-09 09:00 4.65 µg/m3 0.15 µg/m3 8.97 µg/m3 3.18 µg/m3 0.19 mg/m3 12.74 °C 60.42 % 1,008.19 mbar 3.61 m/s 284.22 Deg 1.17 µg/m3
2022-01-09 01:00 0.98 µg/m3 0.05 µg/m3 8.8 µg/m3 3.09 µg/m3 0.22 mg/m3 12.97 °C 59.62 % 1,007.76 mbar 2.99 m/s 326.46 Deg 0.38 µg/m3
2022-01-08 17:00 6.27 µg/m3 0.1 µg/m3 9.11 µg/m3 3.21 µg/m3 0.23 mg/m3 13.63 °C 67.21 % 1,007.10 mbar 3.73 m/s 295.27 Deg 2.2 µg/m3
2022-01-08 09:00 5.59 µg/m3 0.03 µg/m3 9.35 µg/m3 3.61 µg/m3 0.21 mg/m3 13.68 °C 75.48 % 1,007.40 mbar 3.16 m/s 301.96 Deg 1.22 µg/m3
2022-01-08 01:00 4.6 µg/m3 0.05 µg/m3 8.91 µg/m3 3.35 µg/m3 0.21 mg/m3 13.54 °C 76.44 % 1,007.47 mbar 2.67 m/s 326.13 Deg 2.82 µg/m3
2022-01-07 17:00 14.82 µg/m3 0.1 µg/m3 9.76 µg/m3 4.01 µg/m3 0.23 mg/m3 13.1 °C 85.3 % 1,006.93 mbar 2.73 m/s 289.32 Deg 2.97 µg/m3
2022-01-07 09:00 10.09 µg/m3 0.12 µg/m3 10.51 µg/m3 4.53 µg/m3 0.21 mg/m3 13.61 °C 82.42 % 1,007.02 mbar 2.34 m/s 320.6 Deg 2.11 µg/m3
2022-01-07 01:00 5.39 µg/m3 0.07 µg/m3 10.24 µg/m3 4.23 µg/m3 0.17 mg/m3 14.47 °C 80.14 % 1,007.25 mbar 2.22 m/s 290.34 Deg 1.36 µg/m3
2022-01-06 17:00 31.23 µg/m3 0.7 µg/m3 17.43 µg/m3 7.61 µg/m3 0.3 mg/m3 15.52 °C 78.15 % 1,007.05 mbar 0.56 m/s 214.49 Deg 31.35 µg/m3
2022-01-06 09:00 69.21 µg/m3 1.16 µg/m3 20.54 µg/m3 10.7 µg/m3 0.45 mg/m3 11.86 °C 89.79 % 1,008.65 mbar 1.66 m/s 198.64 Deg 84.05 µg/m3
2022-01-06 01:00 44.34 µg/m3 0.23 µg/m3 14.49 µg/m3 7.41 µg/m3 0.27 mg/m3 14.53 °C 86.98 % 1,009.59 mbar 2.93 m/s 194.98 Deg 6.93 µg/m3
2022-01-05 17:00 11.67 µg/m3 0.31 µg/m3 10.92 µg/m3 4.75 µg/m3 0.2 mg/m3 17.15 °C 73.7 % 1,009.80 mbar 8.15 m/s 195.52 Deg 3.4 µg/m3
2022-01-05 09:00 16.49 µg/m3 0.06 µg/m3 10.71 µg/m3 4.66 µg/m3 0.21 mg/m3 15.45 °C 83.12 % 1,011.88 mbar 3.89 m/s 188.83 Deg 1.79 µg/m3
2022-01-05 01:00 17.12 µg/m3 0.15 µg/m3 13.32 µg/m3 6.67 µg/m3 0.19 mg/m3 15 °C 89.98 % 1,014.84 mbar 3.08 m/s 188.28 Deg 1 µg/m3
2022-01-04 17:00 10.78 µg/m3 0.17 µg/m3 16.19 µg/m3 8.89 µg/m3 0.22 mg/m3 15.41 °C 81.19 % 1,017.58 mbar 5.3 m/s 206.71 Deg 3.62 µg/m3
2022-01-04 09:00 9.29 µg/m3 -0.01 µg/m3 9.76 µg/m3 3.94 µg/m3 0.19 mg/m3 14.04 °C 81.8 % 1,019.11 mbar 2.84 m/s 236.64 Deg 0.93 µg/m3
2022-01-04 01:00 3.35 µg/m3 -0.01 µg/m3 9.25 µg/m3 3.65 µg/m3 0.2 mg/m3 14.19 °C 83 % 1,020.00 mbar 3.54 m/s 260.6 Deg 0.52 µg/m3
2022-01-03 17:00 7.66 µg/m3 0.03 µg/m3 11.15 µg/m3 5 µg/m3 0.2 mg/m3 14.57 °C 79.46 % 1,021.03 mbar 5.11 m/s 259.92 Deg 2.26 µg/m3
2022-01-03 09:00 11.14 µg/m3 0.07 µg/m3 9.98 µg/m3 4.21 µg/m3 0.21 mg/m3 13.92 °C 84.24 % 1,021.89 mbar 3.37 m/s 238.59 Deg 1.37 µg/m3
2022-01-03 01:00 42.59 µg/m3 0.27 µg/m3 15.69 µg/m3 8.57 µg/m3 0.32 mg/m3 13.84 °C 91.28 % 1,023.50 mbar 1.65 m/s 200.03 Deg 12.92 µg/m3
2022-01-02 17:00 25.03 µg/m3 0.36 µg/m3 14.33 µg/m3 6.91 µg/m3 0.35 mg/m3 16.56 °C 76.61 % 1,023.79 mbar 1.34 m/s 196.99 Deg 11.08 µg/m3
2022-01-02 09:00 27.63 µg/m3 0.18 µg/m3 12.86 µg/m3 6.34 µg/m3 0.26 mg/m3 12.79 °C 94.04 % 1,023.10 mbar 1.74 m/s 209.8 Deg 9.8 µg/m3
2022-01-02 01:00 6.1 µg/m3 0.03 µg/m3 15.79 µg/m3 8.52 µg/m3 0.15 mg/m3 15.09 °C 88.91 % 1,022.43 mbar 2.07 m/s 291.39 Deg 0.43 µg/m3
2022-01-01 17:00 6.33 µg/m3 0.07 µg/m3 11.66 µg/m3 5.4 µg/m3 0.19 mg/m3 16.2 °C 84.04 % 1,022.14 mbar 3.75 m/s 259.93 Deg 2.05 µg/m3
2022-01-01 09:00 43.24 µg/m3 0.38 µg/m3 15.13 µg/m3 8.14 µg/m3 0.4 mg/m3 12.93 °C 90.74 % 1,022.67 mbar 1.61 m/s 197.5 Deg 14.66 µg/m3
2022-01-01 01:00 54.7 µg/m3 0.36 µg/m3 18.74 µg/m3 10.62 µg/m3 0.49 mg/m3 13.24 °C 77.3 % 1,023.25 mbar 1.9 m/s 210.48 Deg 13.59 µg/m3
2021-12-31 17:00 19.06 µg/m3 0.32 µg/m3 12.64 µg/m3 5.48 µg/m3 0.32 mg/m3 16.43 °C 70.18 % 1,021.66 mbar 1.79 m/s 299.52 Deg 11.22 µg/m3
2021-12-31 09:00 48.07 µg/m3 0.57 µg/m3 18.55 µg/m3 9.34 µg/m3 0.37 mg/m3 12.25 °C 88.52 % 1,019.16 mbar 1.88 m/s 207.51 Deg 41.32 µg/m3
2021-12-31 01:00 46.57 µg/m3 0.3 µg/m3 14.53 µg/m3 7.19 µg/m3 0.35 mg/m3 15.25 °C 88.53 % 1,016.28 mbar 0.68 m/s 211.85 Deg 22.39 µg/m3
2021-12-30 17:00 7.34 µg/m3 -0.03 µg/m3 13.03 µg/m3 5.83 µg/m3 0.24 mg/m3 16.67 °C 84.83 % 1,013.27 mbar 2.25 m/s 306.39 Deg 2.9 µg/m3
2021-12-30 09:00 6.87 µg/m3 -0.04 µg/m3 12.53 µg/m3 5.93 µg/m3 0.18 mg/m3 15.96 °C 88.63 % 1,011.34 mbar 3.33 m/s 277.68 Deg 3.3 µg/m3
2021-12-30 01:00 2.72 µg/m3 -0.06 µg/m3 11.96 µg/m3 5.6 µg/m3 0.17 mg/m3 16.4 °C 83.36 % 1,010.98 mbar 5.16 m/s 269.02 Deg 0.55 µg/m3
2021-12-29 17:00 5.36 µg/m3 -0.04 µg/m3 11.87 µg/m3 5.59 µg/m3 0.16 mg/m3 16.82 °C 79.65 % 1,011.01 mbar 7.01 m/s 260.71 Deg 1.15 µg/m3
2021-12-29 09:00 4.47 µg/m3 -0.03 µg/m3 11.75 µg/m3 5.46 µg/m3 0.28 mg/m3 15.87 °C 83.38 % 1,011.41 mbar 4.34 m/s 266.44 Deg 0.48 µg/m3
2021-12-29 01:00 3.42 µg/m3 -0.04 µg/m3 11.51 µg/m3 5.36 µg/m3 0.43 mg/m3 15.95 °C 82.63 % 1,011.29 mbar 5.42 m/s 260.24 Deg 0.48 µg/m3
2021-12-28 17:00 4.31 µg/m3 0 µg/m3 10.72 µg/m3 4.62 µg/m3 0.25 mg/m3 16.81 °C 75.47 % 1,010.22 mbar 7.39 m/s 261.75 Deg 1.23 µg/m3
2021-12-28 09:00 14.17 µg/m3 0.38 µg/m3 12.39 µg/m3 5.89 µg/m3 0.19 mg/m3 16.41 °C 81.76 % 1,009.75 mbar 6.26 m/s 222.12 Deg 9.23 µg/m3
2021-12-28 01:00 20.07 µg/m3 0.03 µg/m3 14.06 µg/m3 6.85 µg/m3 0.27 mg/m3 16.1 °C 85.4 % 1,011.90 mbar 4.59 m/s 210.25 Deg 2 µg/m3
2021-12-27 17:00 11.41 µg/m3 0.09 µg/m3 12.95 µg/m3 5.36 µg/m3 0.23 mg/m3 17.04 °C 75.18 % 1,011.67 mbar 3.02 m/s 272.22 Deg 2.74 µg/m3
2021-12-27 09:00 44.42 µg/m3 0.22 µg/m3 14.56 µg/m3 6.42 µg/m3 0.25 mg/m3 15.98 °C 84.62 % 1,010.47 mbar 1.58 m/s 205.17 Deg 15.82 µg/m3
2021-12-27 01:00 25.86 µg/m3 0.15 µg/m3 12.65 µg/m3 5.56 µg/m3 0.15 mg/m3 16.76 °C 83.15 % 1,011.73 mbar 2.91 m/s 187.73 Deg 6.89 µg/m3
2021-12-26 17:00 22.94 µg/m3 0.23 µg/m3 15.57 µg/m3 6.45 µg/m3 0.24 mg/m3 18.38 °C 65.04 % 1,012.14 mbar 4.31 m/s 193.31 Deg 6.9 µg/m3
2021-12-26 09:00 15.33 µg/m3 0.19 µg/m3 14.6 µg/m3 6.47 µg/m3 0.18 mg/m3 16.8 °C 78.05 % 1,012.67 mbar 3.18 m/s 187.8 Deg 2.87 µg/m3
2021-12-26 01:00 16.64 µg/m3 0.22 µg/m3 14.61 µg/m3 6.95 µg/m3 0.19 mg/m3 16.59 °C 80.68 % 1,013.51 mbar 3.56 m/s 185.96 Deg 4.88 µg/m3
2021-12-25 17:00 21.87 µg/m3 0.3 µg/m3 16.05 µg/m3 7.9 µg/m3 0.25 mg/m3 17.9 °C 77.09 % 1,015.00 mbar 4.59 m/s 181.96 Deg 8.59 µg/m3
2021-12-25 09:00 32.16 µg/m3 0.31 µg/m3 12.82 µg/m3 6.16 µg/m3 0.21 mg/m3 15.62 °C 85.38 % 1,017.05 mbar 3.07 m/s 180.92 Deg 9.28 µg/m3
2021-12-25 01:00 60.01 µg/m3 0.44 µg/m3 19.87 µg/m3 11.09 µg/m3 0.58 mg/m3 13.84 °C 85.41 % 1,018.94 mbar 1.1 m/s 195.55 Deg 35.95 µg/m3
2021-12-24 17:00 29.01 µg/m3 0.64 µg/m3 15.1 µg/m3 6.94 µg/m3 0.33 mg/m3 15.58 °C 72.14 % 1,020.38 mbar 1.95 m/s 196.62 Deg 25.63 µg/m3
2021-12-24 09:00 54.38 µg/m3 0.66 µg/m3 23.6 µg/m3 12.74 µg/m3 0.34 mg/m3 10.74 °C 90.89 % 1,021.29 mbar 1.94 m/s 201.26 Deg 62.55 µg/m3
2021-12-24 01:00 40.22 µg/m3 0.3 µg/m3 11.94 µg/m3 5.34 µg/m3 0.29 mg/m3 14.26 °C 78.68 % 1,021.10 mbar 0.65 m/s 230.38 Deg 7.64 µg/m3
2021-12-23 17:00 13.13 µg/m3 0.23 µg/m3 12.32 µg/m3 4.68 µg/m3 0.24 mg/m3 15.18 °C 75.44 % 1,020.28 mbar 1 m/s 247.42 Deg 3.41 µg/m3
2021-12-23 09:00 5.95 µg/m3 0 µg/m3 9.48 µg/m3 3.69 µg/m3 0 mg/m3 14.41 °C 77.33 % 1,019.80 mbar 1.24 m/s 231.26 Deg 0.86 µg/m3
2021-12-23 01:00 24.28 µg/m3 0.22 µg/m3 11.88 µg/m3 5.02 µg/m3 0.17 mg/m3 14.56 °C 73.93 % 1,019.95 mbar 0.45 m/s 245.69 Deg 2.35 µg/m3
2021-12-22 17:00 25.16 µg/m3 0.7 µg/m3 14.28 µg/m3 5.53 µg/m3 0.27 mg/m3 15 °C 68.63 % 1,019.94 mbar 0.8 m/s 228.54 Deg 21.11 µg/m3
2021-12-22 09:00 59.73 µg/m3 1.02 µg/m3 18.93 µg/m3 9.72 µg/m3 1.19 mg/m3 11.59 °C 85.8 % 1,020.41 mbar 1.72 m/s 199.26 Deg 53.71 µg/m3
2021-12-22 01:00 65.39 µg/m3 0.97 µg/m3 23.76 µg/m3 12.64 µg/m3 0 mg/m3 12.46 °C 80.12 % 1,020.76 mbar 1.66 m/s 210.33 Deg 42.12 µg/m3
2021-12-21 17:00 12.01 µg/m3 0.3 µg/m3 11.27 µg/m3 4.28 µg/m3 0 mg/m3 15.1 °C 66.49 % 1,020.10 mbar 1.89 m/s 305.47 Deg 4.81 µg/m3

It is to be noted that the data is provisional and subject to quality assurance procedures. For validated data kindly refer your request to contact.air@era.org.mt